Time;durP1;ratioP1;P1;durP2;ratioP2;P2;SDS_P1;SDS_P2;PMS_P1;PMS_P2;Temp;Humidity;BMP_temperature;BMP_pressure;BME280_temperature;BME280_humidity;BME280_pressure;Samples;Min_cycle;Max_cycle;Signal;HPM_P1;HPM_P2
2022/07/11 00:02:19;;;;;;;1.42;0.90;;;;;;;15.23;70.31;98746.75;1695876;84;20981;-65
2022/07/11 00:04:46;;;;;;;1.17;0.80;;;;;;;15.20;70.52;98746.67;1695011;84;21255;-65
2022/07/11 00:07:14;;;;;;;1.80;0.90;;;;;;;15.20;70.64;98743.20;1696079;84;20938;-64
2022/07/11 00:09:40;;;;;;;5.47;0.90;;;;;;;15.21;70.78;98747.50;1696330;84;21464;-64
2022/07/11 00:12:09;;;;;;;2.17;0.80;;;;;;;15.23;70.75;98744.08;1695820;84;20945;-67
2022/07/11 00:14:39;;;;;;;1.70;0.72;;;;;;;15.26;70.71;98743.13;1696235;84;20989;-64
2022/07/11 00:17:05;;;;;;;2.83;0.98;;;;;;;15.29;70.65;98741.36;1696066;83;21160;-64
2022/07/11 00:19:32;;;;;;;1.05;0.70;;;;;;;15.30;70.53;98744.33;1695828;84;21013;-64
2022/07/11 00:22:00;;;;;;;1.05;0.72;;;;;;;15.28;70.49;98744.24;1694664;83;20994;-64
2022/07/11 00:24:29;;;;;;;2.77;0.90;;;;;;;15.26;70.52;98747.66;1696207;84;20907;-64
2022/07/11 00:26:57;;;;;;;0.50;0.50;;;;;;;15.22;70.55;98745.95;1696134;84;20990;-65
2022/07/11 00:29:24;;;;;;;2.87;0.80;;;;;;;15.20;70.66;98752.58;1696225;84;21218;-64
2022/07/11 00:31:51;;;;;;;2.50;0.78;;;;;;;15.23;70.70;98748.92;1694688;84;20914;-64
2022/07/11 00:34:17;;;;;;;2.15;0.95;;;;;;;15.23;70.57;98744.91;1685219;84;20971;-64
2022/07/11 00:36:44;;;;;;;0.72;0.60;;;;;;;15.19;70.59;98744.22;1684326;85;21011;-65
2022/07/11 00:39:11;;;;;;;3.85;0.65;;;;;;;15.15;70.81;98751.86;1684223;85;21509;-67
2022/07/11 00:41:37;;;;;;;1.57;0.90;;;;;;;15.15;70.94;98747.02;1681652;85;21834;-67
2022/07/11 00:44:05;;;;;;;1.45;0.95;;;;;;;15.16;70.99;98748.16;1684206;84;20975;-64
2022/07/11 00:46:33;;;;;;;1.12;0.82;;;;;;;15.15;70.96;98743.83;1684315;85;21006;-67
2022/07/11 00:48:59;;;;;;;2.40;0.80;;;;;;;15.13;71.07;98744.56;1684248;84;21026;-64
2022/07/11 00:51:26;;;;;;;1.22;0.78;;;;;;;15.15;71.09;98743.83;1681150;85;21023;-65
2022/07/11 00:53:55;;;;;;;2.20;0.82;;;;;;;15.14;71.03;98748.08;1685147;85;21101;-64
2022/07/11 00:56:24;;;;;;;1.87;0.72;;;;;;;15.13;71.14;98751.27;1684485;85;21457;-65
2022/07/11 00:58:52;;;;;;;2.45;0.90;;;;;;;15.16;71.14;98747.33;1681904;84;21057;-65
2022/07/11 01:01:18;;;;;;;1.85;0.70;;;;;;;15.14;71.17;98753.43;1683623;85;20997;-67
2022/07/11 01:03:45;;;;;;;1.15;0.80;;;;;;;15.16;71.19;98752.69;1683395;85;21003;-66
2022/07/11 01:06:12;;;;;;;1.25;0.78;;;;;;;15.17;71.14;98750.33;1684293;85;21244;-66
2022/07/11 01:08:39;;;;;;;1.17;0.82;;;;;;;15.17;71.07;98747.64;1684308;85;21432;-65
2022/07/11 01:11:18;;;;;;;1.62;1.00;;;;;;;15.15;71.10;98746.50;1684339;84;20947;-65
2022/07/11 01:13:45;;;;;;;1.52;0.82;;;;;;;15.18;71.11;98751.95;1683414;85;20974;-66
2022/07/11 01:16:19;;;;;;;1.00;0.70;;;;;;;15.20;71.02;98750.69;1684209;85;21014;-65
2022/07/11 01:18:50;;;;;;;1.02;0.80;;;;;;;15.21;70.88;98751.00;1684173;85;21149;-66
2022/07/11 01:21:38;;;;;;;1.50;1.00;;;;;;;15.20;70.88;98749.34;1684192;84;20963;-64
2022/07/11 01:24:05;;;;;;;1.70;0.70;;;;;;;15.20;70.87;98743.99;1683943;83;21508;-65
2022/07/11 01:26:32;;;;;;;2.05;0.82;;;;;;;15.24;70.88;98741.70;1684048;85;21037;-64
2022/07/11 01:29:11;;;;;;;1.55;0.60;;;;;;;15.29;70.76;98750.73;1684156;84;21007;-64
2022/07/11 01:31:38;;;;;;;1.50;0.80;;;;;;;15.33;70.62;98743.89;1684137;84;21238;-66
2022/07/11 01:34:05;;;;;;;3.65;0.82;;;;;;;15.37;70.49;98748.31;1685896;83;20962;-65
2022/07/11 01:36:32;;;;;;;1.87;1.00;;;;;;;15.41;70.41;98748.16;1699457;84;21380;-66
2022/07/11 01:38:59;;;;;;;2.55;0.80;;;;;;;15.44;70.18;98743.70;1694839;84;21434;-65
2022/07/11 01:41:25;;;;;;;2.40;0.95;;;;;;;15.43;70.04;98750.13;1688818;83;21511;-64
2022/07/11 01:43:52;;;;;;;3.30;1.00;;;;;;;15.43;70.11;98749.58;1692141;84;21231;-65
2022/07/11 01:46:21;;;;;;;1.35;0.95;;;;;;;15.46;70.04;98754.26;1688598;83;21552;-65
2022/07/11 01:48:48;;;;;;;2.22;1.22;;;;;;;15.44;69.90;98751.75;1697463;84;21022;-65
2022/07/11 01:51:14;;;;;;;1.50;0.93;;;;;;;15.46;69.95;98755.05;1694496;84;21006;-66
2022/07/11 01:53:41;;;;;;;3.10;1.10;;;;;;;15.48;69.91;98753.00;1692285;84;20992;-65
2022/07/11 01:56:07;;;;;;;1.98;0.90;;;;;;;15.52;69.79;98754.19;1697693;84;21104;-64
2022/07/11 01:58:34;;;;;;;1.60;0.98;;;;;;;15.54;69.71;98759.34;1699097;84;21002;-65
2022/07/11 02:01:01;;;;;;;2.17;0.95;;;;;;;15.53;69.68;98749.14;1697493;84;20964;-65
2022/07/11 02:03:27;;;;;;;1.50;0.85;;;;;;;15.53;69.64;98757.70;1688190;84;21111;-65
2022/07/11 02:05:55;;;;;;;3.60;0.90;;;;;;;15.52;69.63;98754.70;1698692;84;20984;-65
2022/07/11 02:08:21;;;;;;;2.40;0.82;;;;;;;15.53;69.66;98756.36;1698426;84;21323;-65
2022/07/11 02:10:50;;;;;;;1.55;0.70;;;;;;;15.54;69.64;98749.97;1699514;84;21552;-65
2022/07/11 02:13:18;;;;;;;0.93;0.80;;;;;;;15.56;69.62;98743.34;1688876;83;20919;-67
2022/07/11 02:15:46;;;;;;;1.15;0.80;;;;;;;15.59;69.63;98744.22;1684430;84;21568;-65
2022/07/11 02:18:14;;;;;;;2.12;1.22;;;;;;;15.64;69.59;98747.61;1696708;84;20940;-64
2022/07/11 02:20:41;;;;;;;1.42;0.85;;;;;;;15.66;69.45;98746.34;1694260;84;21152;-68
2022/07/11 02:23:08;;;;;;;3.27;0.90;;;;;;;15.66;69.40;98742.32;1689762;83;20938;-67
2022/07/11 02:25:38;;;;;;;1.70;0.72;;;;;;;15.66;69.35;98741.50;1694255;83;21517;-65
2022/07/11 02:28:08;;;;;;;2.50;0.90;;;;;;;15.65;69.39;98742.02;1698384;84;20963;-67
2022/07/11 02:30:35;;;;;;;0.88;0.78;;;;;;;15.66;69.36;98745.00;1697811;84;20991;-65
2022/07/11 02:33:01;;;;;;;1.92;0.90;;;;;;;15.69;69.36;98747.77;1696372;83;21252;-65
2022/07/11 02:35:28;;;;;;;1.45;0.80;;;;;;;15.72;69.35;98744.65;1699149;83;21477;-67
2022/07/11 02:37:54;;;;;;;2.90;0.80;;;;;;;15.74;69.33;98747.92;1706806;83;20976;-65
2022/07/11 02:40:21;;;;;;;1.50;0.88;;;;;;;15.76;69.25;98749.34;1702786;83;21512;-65
2022/07/11 02:42:48;;;;;;;2.22;1.32;;;;;;;15.77;69.22;98743.46;1692904;83;20954;-65
2022/07/11 02:45:14;;;;;;;2.90;1.50;;;;;;;15.80;69.16;98745.70;1696639;83;21888;-65
2022/07/11 02:47:42;;;;;;;1.45;0.90;;;;;;;15.82;69.15;98747.12;1696439;83;20993;-64
2022/07/11 02:50:11;;;;;;;2.95;1.00;;;;;;;15.84;69.20;98744.20;1695209;83;20939;-65
2022/07/11 02:52:40;;;;;;;1.42;0.70;;;;;;;15.85;69.17;98751.23;1701958;83;21035;-64
2022/07/11 02:55:09;;;;;;;0.80;0.80;;;;;;;15.87;69.17;98751.30;1687399;83;20954;-65
2022/07/11 02:57:38;;;;;;;1.25;0.80;;;;;;;15.90;69.11;98746.81;1689147;83;21217;-65
2022/07/11 03:00:08;;;;;;;2.75;0.98;;;;;;;15.91;69.19;98742.27;1661446;85;21005;-68
2022/07/11 03:02:35;;;;;;;1.98;1.00;;;;;;;15.94;69.27;98741.31;1634591;87;21033;-64
2022/07/11 03:05:01;;;;;;;2.10;0.90;;;;;;;15.98;69.25;98747.86;1675206;84;21025;-64
2022/07/11 03:07:28;;;;;;;3.25;0.90;;;;;;;16.03;69.26;98748.56;1676823;84;20936;-64
2022/07/11 03:09:55;;;;;;;0.98;0.80;;;;;;;16.08;69.18;98750.84;1642728;87;21244;-65
2022/07/11 03:12:22;;;;;;;1.57;0.85;;;;;;;16.20;69.06;98748.77;1664572;84;20951;-63
2022/07/11 03:14:48;;;;;;;1.98;0.90;;;;;;;16.34;68.81;98748.94;1640512;87;20976;-64
2022/07/11 03:17:17;;;;;;;1.22;0.65;;;;;;;16.48;68.44;98748.53;1631816;86;20999;-66
2022/07/11 03:19:44;;;;;;;1.10;0.57;;;;;;;16.65;68.01;98746.92;1651246;86;21542;-65
2022/07/11 03:22:10;;;;;;;1.37;0.80;;;;;;;16.85;67.61;98743.95;1641699;85;21215;-65
2022/07/11 03:24:37;;;;;;;1.47;0.80;;;;;;;17.06;66.99;98746.66;1652745;86;20964;-67
2022/07/11 03:27:05;;;;;;;1.72;1.05;;;;;;;17.33;66.35;98745.73;1642921;86;21044;-64
2022/07/11 03:29:33;;;;;;;1.87;0.80;;;;;;;17.59;65.55;98745.33;1643080;86;21044;-65
2022/07/11 03:32:00;;;;;;;2.50;0.90;;;;;;;17.89;64.69;98743.34;1641708;86;20960;-67
2022/07/11 03:34:27;;;;;;;1.85;0.80;;;;;;;18.18;63.92;98746.42;1642869;86;21189;-65
2022/07/11 03:36:54;;;;;;;3.45;0.98;;;;;;;18.44;63.01;98745.90;1659621;86;21042;-66
2022/07/11 03:39:23;;;;;;;2.90;1.00;;;;;;;18.60;62.18;98750.27;1659585;86;21016;-65
2022/07/11 03:41:50;;;;;;;5.37;3.50;;;;;;;18.90;61.44;98750.87;1666977;85;21518;-65
2022/07/11 03:44:16;;;;;;;3.60;2.62;;;;;;;19.39;60.13;98749.36;1659322;84;21080;-65
2022/07/11 03:46:42;;;;;;;3.52;2.00;;;;;;;19.57;58.93;98746.42;1669302;85;21279;-65
2022/07/11 03:49:09;;;;;;;2.25;1.30;;;;;;;19.52;58.63;98754.43;1634494;86;21633;-65
2022/07/11 03:51:36;;;;;;;2.42;1.00;;;;;;;19.44;58.21;98750.79;1626406;86;21534;-65
2022/07/11 03:54:03;;;;;;;1.22;0.80;;;;;;;19.30;58.41;98750.77;1631390;88;21592;-65
2022/07/11 03:56:30;;;;;;;1.20;0.60;;;;;;;19.19;58.47;98753.82;1631585;87;20946;-68
2022/07/11 03:58:56;;;;;;;1.55;0.70;;;;;;;19.14;58.61;98755.08;1631572;88;21236;-68
2022/07/11 04:01:22;;;;;;;1.90;0.62;;;;;;;19.05;58.70;98755.20;1631113;87;21511;-65
2022/07/11 04:03:49;;;;;;;3.12;0.90;;;;;;;18.98;59.01;98751.29;1667835;84;20919;-65
2022/07/11 04:06:16;;;;;;;1.98;0.85;;;;;;;18.96;59.16;98756.11;1671513;85;20965;-65
2022/07/11 04:08:43;;;;;;;1.47;0.70;;;;;;;18.98;59.22;98758.58;1630827;86;21038;-65
2022/07/11 04:11:11;;;;;;;1.00;0.57;;;;;;;18.95;59.19;98759.06;1674306;84;20948;-68
2022/07/11 04:13:37;;;;;;;1.82;0.75;;;;;;;18.94;59.20;98764.15;1657495;85;20906;-66
2022/07/11 04:16:05;;;;;;;1.55;0.82;;;;;;;18.91;59.26;98765.98;1659804;85;21033;-66
2022/07/11 04:18:32;;;;;;;4.42;1.00;;;;;;;18.84;59.24;98768.83;1659661;85;20961;-65
2022/07/11 04:20:59;;;;;;;1.40;0.60;;;;;;;18.76;59.38;98772.42;1659745;84;20910;-67
2022/07/11 04:23:25;;;;;;;1.62;0.80;;;;;;;18.66;59.66;98773.57;1657529;85;21238;-64
2022/07/11 04:25:52;;;;;;;2.60;1.20;;;;;;;18.62;59.90;98778.61;1659665;85;21100;-67
2022/07/11 04:28:18;;;;;;;2.17;0.80;;;;;;;18.59;60.07;98780.98;1659601;85;20961;-65
2022/07/11 04:30:45;;;;;;;2.20;1.10;;;;;;;18.60;60.13;98778.56;1659295;85;21091;-66
2022/07/11 04:33:11;;;;;;;1.52;1.02;;;;;;;18.60;60.25;98785.29;1658188;86;21130;-65
2022/07/11 04:35:39;;;;;;;1.20;0.90;;;;;;;18.64;60.32;98780.52;1618568;86;21262;-65
2022/07/11 04:38:05;;;;;;;2.42;1.42;;;;;;;18.65;60.19;98782.70;1633274;86;20961;-65
2022/07/11 04:40:32;;;;;;;2.40;1.35;;;;;;;18.72;60.23;98780.70;1605988;88;21000;-67
2022/07/11 04:42:58;;;;;;;3.83;1.92;;;;;;;18.82;60.12;98791.69;1608598;88;21007;-65
2022/07/11 04:45:25;;;;;;;3.60;2.58;;;;;;;18.90;59.85;98783.22;1634856;85;21023;-65
2022/07/11 04:47:52;;;;;;;2.05;1.47;;;;;;;19.03;59.70;98788.33;1636197;85;21268;-66
2022/07/11 04:50:19;;;;;;;2.30;1.25;;;;;;;19.18;59.33;98781.86;1633669;85;20940;-67
2022/07/11 04:52:45;;;;;;;2.33;1.30;;;;;;;19.26;58.56;98786.86;1638129;85;21020;-65
2022/07/11 04:55:11;;;;;;;2.17;1.20;;;;;;;19.24;58.54;98787.61;1632765;85;20896;-66
2022/07/11 04:57:38;;;;;;;5.15;1.10;;;;;;;19.25;58.49;98784.39;1633368;85;20947;-66
2022/07/11 05:00:07;;;;;;;3.95;1.52;;;;;;;19.25;58.36;98787.91;1629718;86;21274;-64
2022/07/11 05:02:34;;;;;;;3.17;0.95;;;;;;;19.18;58.31;98794.00;1630899;86;21014;-65
2022/07/11 05:05:00;;;;;;;4.12;1.10;;;;;;;19.09;58.45;98796.25;1660408;86;20866;-68
2022/07/11 05:07:27;;;;;;;1.65;0.98;;;;;;;19.02;58.60;98799.63;1634336;86;21070;-67
2022/07/11 05:09:54;;;;;;;3.85;1.27;;;;;;;19.02;58.81;98807.72;1653221;86;20938;-65
2022/07/11 05:12:20;;;;;;;3.70;0.88;;;;;;;19.03;58.84;98798.55;1627335;86;21276;-66
2022/07/11 05:14:48;;;;;;;1.42;0.68;;;;;;;19.06;58.95;98802.64;1641231;85;20899;-65
2022/07/11 05:17:15;;;;;;;1.60;0.80;;;;;;;19.11;58.79;98802.21;1647112;86;20980;-65
2022/07/11 05:19:41;;;;;;;3.72;1.60;;;;;;;19.12;58.85;98803.04;1657447;86;20967;-64
2022/07/11 05:22:08;;;;;;;4.17;1.35;;;;;;;19.14;58.71;98798.22;1634870;86;20975;-67
2022/07/11 05:24:36;;;;;;;1.77;0.93;;;;;;;19.15;58.63;98803.91;1631888;86;21471;-65
2022/07/11 05:27:03;;;;;;;1.92;1.27;;;;;;;19.18;58.55;98801.25;1623968;86;21107;-67
2022/07/11 05:29:30;;;;;;;5.12;1.12;;;;;;;19.22;58.43;98795.66;1624541;86;20920;-67
2022/07/11 05:31:57;;;;;;;7.92;1.22;;;;;;;19.23;58.33;98795.43;1636207;86;20980;-67
2022/07/11 05:34:25;;;;;;;1.85;1.07;;;;;;;19.33;58.29;98799.66;1644337;85;21070;-66
2022/07/11 05:36:52;;;;;;;1.67;0.98;;;;;;;19.47;57.99;98795.63;1692195;83;21224;-66
2022/07/11 05:39:19;;;;;;;0.68;0.68;;;;;;;19.54;57.43;98794.11;1693087;83;20911;-66
2022/07/11 05:41:45;;;;;;;2.12;1.50;;;;;;;19.55;57.34;98793.06;1693378;84;21010;-68
2022/07/11 05:44:12;;;;;;;3.40;1.30;;;;;;;19.61;57.28;98790.19;1685684;83;20986;-68
2022/07/11 05:46:39;;;;;;;2.22;1.40;;;;;;;19.73;56.93;98792.00;1692953;84;21075;-65
2022/07/11 05:49:09;;;;;;;5.03;1.50;;;;;;;19.82;56.50;98789.16;1691908;84;21257;-67
2022/07/11 05:51:38;;;;;;;6.33;1.12;;;;;;;19.87;56.42;98794.63;1693208;84;20947;-67
2022/07/11 05:54:06;;;;;;;4.70;1.15;;;;;;;19.99;56.38;98793.50;1687431;84;20938;-67
2022/07/11 05:56:34;;;;;;;0.80;0.78;;;;;;;20.16;56.08;98790.23;1692243;84;21071;-67
2022/07/11 05:59:00;;;;;;;2.42;0.75;;;;;;;20.33;55.98;98789.69;1688979;84;20918;-67
2022/07/11 06:01:26;;;;;;;1.62;0.93;;;;;;;20.53;55.40;98793.20;1689179;83;21170;-68
2022/07/11 06:03:53;;;;;;;2.33;1.00;;;;;;;20.63;54.54;98791.16;1690867;84;21537;-65
2022/07/11 06:06:21;;;;;;;1.67;0.80;;;;;;;20.57;54.04;98791.63;1688113;83;21012;-67
2022/07/11 06:08:48;;;;;;;1.67;1.00;;;;;;;20.47;54.15;98797.42;1687088;83;20983;-68
2022/07/11 06:11:16;;;;;;;4.17;1.05;;;;;;;20.39;54.38;98798.68;1687010;84;21002;-65
2022/07/11 06:13:48;;;;;;;4.70;1.07;;;;;;;20.37;54.58;98800.00;1687837;84;21158;-67
2022/07/11 06:16:14;;;;;;;1.57;0.78;;;;;;;20.29;54.62;98798.02;1690630;84;21517;-66
2022/07/11 06:18:42;;;;;;;2.40;0.88;;;;;;;20.18;54.80;98806.17;1687360;84;20954;-67
2022/07/11 06:21:08;;;;;;;1.52;0.80;;;;;;;20.12;55.08;98810.72;1687504;84;21026;-66
2022/07/11 06:23:35;;;;;;;2.70;0.80;;;;;;;20.08;55.23;98803.33;1682778;84;21029;-65
2022/07/11 06:26:04;;;;;;;2.05;1.00;;;;;;;20.04;55.25;98811.13;1692874;84;21046;-67
2022/07/11 06:28:31;;;;;;;1.30;0.90;;;;;;;19.94;55.26;98812.33;1689391;84;20995;-66
2022/07/11 06:30:58;;;;;;;2.08;0.88;;;;;;;19.88;55.51;98809.25;1692644;84;21054;-68
2022/07/11 06:33:26;;;;;;;2.80;0.85;;;;;;;19.80;55.66;98810.19;1688403;84;21062;-66
2022/07/11 06:35:53;;;;;;;4.03;0.98;;;;;;;19.80;55.99;98820.98;1689403;84;21105;-67
2022/07/11 06:38:20;;;;;;;2.67;1.10;;;;;;;19.83;55.94;98819.14;1688331;84;21256;-65
2022/07/11 06:40:47;;;;;;;4.22;1.15;;;;;;;19.82;55.74;98813.45;1681209;84;20998;-67
2022/07/11 06:43:14;;;;;;;2.22;0.90;;;;;;;19.83;55.70;98817.80;1691310;84;20972;-66
2022/07/11 06:45:41;;;;;;;1.65;0.65;;;;;;;19.84;55.54;98815.39;1697360;84;20952;-66
2022/07/11 06:48:07;;;;;;;3.62;0.70;;;;;;;19.87;55.74;98816.23;1688743;84;20900;-65
2022/07/11 06:50:36;;;;;;;2.87;0.80;;;;;;;19.94;55.66;98819.08;1692432;84;21237;-65
2022/07/11 06:53:02;;;;;;;0.80;0.80;;;;;;;20.00;55.67;98823.99;1688515;84;20930;-65
2022/07/11 06:55:30;;;;;;;5.03;1.00;;;;;;;20.06;55.65;98821.14;1686712;84;21534;-65
2022/07/11 06:57:57;;;;;;;2.92;0.72;;;;;;;20.06;55.67;98817.09;1687152;84;21119;-66
2022/07/11 07:00:23;;;;;;;2.95;1.17;;;;;;;20.13;55.75;98811.50;1698937;84;21034;-66
2022/07/11 07:02:50;;;;;;;12.95;1.57;;;;;;;20.15;55.76;98808.05;1699590;84;21251;-65
2022/07/11 07:05:17;;;;;;;1.37;0.70;;;;;;;20.20;56.01;98813.52;1693409;84;20947;-66
2022/07/11 07:07:44;;;;;;;3.83;1.15;;;;;;;20.27;55.80;98808.78;1690347;84;21584;-67
2022/07/11 07:10:12;;;;;;;2.22;0.95;;;;;;;20.28;55.70;98810.43;1695114;84;20955;-65
2022/07/11 07:12:39;;;;;;;1.92;0.80;;;;;;;20.36;55.68;98811.36;1695754;84;20885;-65
2022/07/11 07:15:08;;;;;;;3.17;0.80;;;;;;;20.46;55.21;98802.04;1696971;84;21195;-65
2022/07/11 07:17:36;;;;;;;3.62;0.98;;;;;;;20.53;55.02;98804.02;1696784;84;21030;-66
2022/07/11 07:20:11;;;;;;;3.12;1.02;;;;;;;20.67;54.64;98811.22;1698365;84;21086;-68
2022/07/11 07:22:38;;;;;;;2.25;0.70;;;;;;;20.81;54.32;98805.17;1694621;84;20982;-65
2022/07/11 07:25:09;;;;;;;1.52;0.88;;;;;;;21.00;53.79;98808.90;1699254;84;21513;-65
2022/07/11 07:27:36;;;;;;;3.67;0.98;;;;;;;21.11;53.11;98807.98;1696100;84;21163;-65
2022/07/11 07:30:04;;;;;;;2.33;0.80;;;;;;;21.23;52.65;98804.59;1691097;84;20960;-68
2022/07/11 07:32:31;;;;;;;3.75;0.68;;;;;;;21.40;51.91;98812.08;1693682;84;20926;-66
2022/07/11 07:34:58;;;;;;;1.27;0.57;;;;;;;21.52;51.14;98812.73;1697309;84;20990;-65
2022/07/11 07:37:25;;;;;;;2.30;1.00;;;;;;;21.78;50.79;98808.34;1700903;84;21058;-67
2022/07/11 07:39:51;;;;;;;2.80;0.75;;;;;;;22.01;50.12;98808.83;1702255;84;21170;-67
2022/07/11 07:42:18;;;;;;;1.65;0.72;;;;;;;22.33;49.35;98813.38;1702750;84;20931;-68
2022/07/11 07:44:44;;;;;;;2.00;0.70;;;;;;;22.54;48.60;98810.52;1703172;84;20980;-64
2022/07/11 07:47:11;;;;;;;0.80;0.65;;;;;;;22.75;47.62;98807.39;1704365;84;20951;-65
2022/07/11 07:49:37;;;;;;;3.83;1.10;;;;;;;22.93;47.17;98815.06;1704071;84;21474;-66
2022/07/11 07:52:04;;;;;;;2.30;1.00;;;;;;;23.21;46.30;98811.88;1701094;84;21149;-65
2022/07/11 07:54:31;;;;;;;2.70;1.07;;;;;;;23.47;45.87;98810.59;1696774;84;20943;-66
2022/07/11 07:56:57;;;;;;;1.52;0.80;;;;;;;23.74;45.42;98812.53;1700376;84;21014;-66
2022/07/11 07:59:24;;;;;;;0.70;0.70;;;;;;;23.96;44.66;98808.98;1701123;83;20995;-65
2022/07/11 08:01:52;;;;;;;1.57;0.80;;;;;;;24.08;44.13;98819.08;1701197;84;20967;-65
2022/07/11 08:04:19;;;;;;;1.30;0.60;;;;;;;24.12;43.97;98819.33;1695316;84;21434;-66
2022/07/11 08:06:45;;;;;;;2.77;0.70;;;;;;;24.26;43.58;98814.43;1700339;84;20944;-64
2022/07/11 08:09:14;;;;;;;1.00;0.70;;;;;;;24.34;42.89;98815.23;1700324;84;20955;-66
2022/07/11 08:11:40;;;;;;;0.82;0.60;;;;;;;24.38;42.56;98821.73;1702131;84;20944;-66
2022/07/11 08:14:09;;;;;;;1.40;0.72;;;;;;;24.36;42.33;98813.05;1701097;84;20964;-64
2022/07/11 08:16:36;;;;;;;1.50;0.60;;;;;;;24.24;42.05;98816.62;1703355;84;22047;-67
2022/07/11 08:19:04;;;;;;;2.65;0.50;;;;;;;24.17;42.16;98825.57;1702248;84;20978;-63
2022/07/11 08:21:31;;;;;;;0.60;0.60;;;;;;;24.23;42.07;98817.69;1704181;84;20983;-67
2022/07/11 08:23:58;;;;;;;2.33;0.60;;;;;;;24.19;41.64;98823.42;1702140;84;20990;-65
2022/07/11 08:26:24;;;;;;;0.95;0.85;;;;;;;24.10;42.03;98828.30;1704981;84;21002;-64
2022/07/11 08:28:51;;;;;;;1.20;0.80;;;;;;;24.09;42.24;98826.13;1700108;84;21150;-64
2022/07/11 08:31:18;;;;;;;1.80;0.75;;;;;;;24.11;42.45;98817.17;1699408;84;20942;-63
2022/07/11 08:33:45;;;;;;;1.35;0.70;;;;;;;24.28;42.09;98824.48;1701928;84;20995;-65
2022/07/11 08:36:12;;;;;;;2.60;0.78;;;;;;;24.70;41.32;98815.94;1696761;84;20899;-66
2022/07/11 08:38:39;;;;;;;1.67;0.70;;;;;;;25.46;40.68;98810.98;1697535;84;20927;-65
2022/07/11 08:41:06;;;;;;;0.82;0.62;;;;;;;26.38;39.43;98804.23;1691719;84;21516;-65
2022/07/11 08:43:32;;;;;;;2.42;0.62;;;;;;;26.82;38.27;98804.84;1699647;84;20980;-65
2022/07/11 08:46:00;;;;;;;1.85;0.60;;;;;;;26.87;37.89;98805.59;1692595;84;20997;-65
2022/07/11 08:48:28;;;;;;;1.98;0.72;;;;;;;26.95;37.43;98806.86;1698239;84;20993;-65
2022/07/11 08:50:54;;;;;;;1.62;0.93;;;;;;;27.03;37.09;98811.67;1699657;84;21004;-65
2022/07/11 08:53:21;;;;;;;3.22;0.98;;;;;;;27.00;37.07;98809.52;1685576;83;22197;-66
2022/07/11 08:55:48;;;;;;;4.15;0.95;;;;;;;26.81;37.33;98817.67;1687626;84;20930;-64
2022/07/11 08:58:15;;;;;;;1.55;0.90;;;;;;;26.49;37.64;98812.57;1687808;84;21374;-65
2022/07/11 09:00:43;;;;;;;1.62;1.02;;;;;;;26.12;38.13;98818.64;1699732;84;21470;-64
2022/07/11 09:03:13;;;;;;;1.40;0.90;;;;;;;25.69;39.02;98815.72;1695774;84;20960;-65
2022/07/11 09:05:41;;;;;;;1.20;0.85;;;;;;;25.57;39.58;98816.64;1694051;84;21230;-65
2022/07/11 09:08:08;;;;;;;2.05;0.70;;;;;;;25.64;39.62;98812.22;1697156;84;20937;-65
2022/07/11 09:10:40;;;;;;;2.20;0.78;;;;;;;25.59;39.53;98813.08;1694536;84;21023;-65
2022/07/11 09:13:10;;;;;;;1.45;0.75;;;;;;;25.38;39.88;98818.36;1697669;84;43055;-64
2022/07/11 09:15:43;;;;;;;1.62;0.90;;;;;;;25.22;40.45;98820.90;1696173;84;21010;-68
2022/07/11 09:18:38;;;;;;;1.30;0.80;;;;;;;24.97;40.63;98816.95;1698390;84;21544;-65
2022/07/11 09:26:50;;;;;;;2.40;0.82;;;;;;;24.41;41.68;98832.60;1691445;84;20948;-67
2022/07/11 09:29:20;;;;;;;1.52;0.60;;;;;;;24.24;42.08;98830.74;1667484;85;21031;-67
2022/07/11 09:31:49;;;;;;;1.02;0.65;;;;;;;24.09;42.51;98833.48;1684024;84;21251;-68
2022/07/11 09:34:18;;;;;;;1.25;0.90;;;;;;;23.99;42.62;98836.97;1694281;84;20978;-68
2022/07/11 09:36:54;;;;;;;1.47;0.93;;;;;;;23.99;43.10;98836.97;1697404;84;21070;-66
2022/07/11 09:39:19;;;;;;;2.47;1.07;;;;;;;24.15;43.29;98834.55;1695254;84;21086;-65
2022/07/11 09:41:47;;;;;;;0.90;0.80;;;;;;;24.30;43.15;98841.31;1698289;84;21470;-65
2022/07/11 09:44:33;;;;;;;1.00;0.78;;;;;;;24.34;42.54;98841.59;1697797;84;21292;-68
2022/07/11 09:46:54;;;;;;;3.75;0.80;;;;;;;24.25;42.46;98841.86;1697947;84;21058;-67
2022/07/11 09:49:39;;;;;;;1.57;0.70;;;;;;;24.07;42.75;98847.29;1697955;84;21069;-64
2022/07/11 09:52:14;;;;;;;1.70;0.90;;;;;;;23.85;42.83;98852.20;1692599;84;21013;-65
2022/07/11 09:55:00;;;;;;;2.30;0.82;;;;;;;23.46;43.25;98860.55;1692812;84;21529;-66
2022/07/11 09:57:38;;;;;;;3.98;1.05;;;;;;;23.07;44.10;98859.58;1694148;84;21249;-65
2022/07/11 10:00:09;;;;;;;1.42;0.80;;;;;;;22.65;44.78;98857.51;1693504;84;20967;-65
2022/07/11 10:02:37;;;;;;;2.27;0.98;;;;;;;22.32;45.35;98864.03;1694537;84;20959;-66
2022/07/11 10:05:05;;;;;;;1.12;0.85;;;;;;;22.01;46.02;98867.59;1694911;84;20976;-67
2022/07/11 10:07:33;;;;;;;1.67;0.78;;;;;;;21.81;46.57;98866.86;1695391;84;20990;-63
2022/07/11 10:10:01;;;;;;;3.12;1.05;;;;;;;21.71;47.13;98871.36;1696787;84;21283;-66
2022/07/11 10:12:29;;;;;;;0.98;0.90;;;;;;;21.64;47.45;98872.91;1696179;84;20944;-64
2022/07/11 10:14:56;;;;;;;1.52;0.90;;;;;;;21.63;47.67;98865.06;1697933;84;20984;-64
2022/07/11 10:17:29;;;;;;;2.17;0.80;;;;;;;21.64;47.87;98861.29;1697288;84;20998;-65
2022/07/11 10:20:19;;;;;;;2.08;0.80;;;;;;;21.66;47.49;98865.37;1699050;84;21020;-64
2022/07/11 10:23:04;;;;;;;1.82;0.78;;;;;;;21.79;47.57;98859.54;1694988;84;21161;-65
2022/07/11 10:25:49;;;;;;;2.98;0.85;;;;;;;22.54;46.63;98848.47;1693371;84;21581;-65
2022/07/11 10:28:52;;;;;;;3.15;0.70;;;;;;;22.54;46.63;98848.47;1695550;84;20960;-66
2022/07/11 10:31:23;;;;;;;1.50;0.70;;;;;;;22.74;45.33;98854.02;1690922;84;21498;-67
2022/07/11 10:34:10;;;;;;;1.12;0.80;;;;;;;22.80;45.34;98851.33;1696655;84;21489;-64
2022/07/11 10:36:41;;;;;;;2.72;0.70;;;;;;;23.08;45.28;98844.94;1684666;84;21773;-65
2022/07/11 10:39:21;;;;;;;0.98;0.62;;;;;;;23.52;44.51;98849.42;1696726;84;21008;-65
2022/07/11 10:41:47;;;;;;;0.95;0.70;;;;;;;23.85;43.81;98839.98;1698766;84;21493;-65
2022/07/11 10:44:14;;;;;;;2.33;0.70;;;;;;;23.98;43.22;98844.05;1698362;84;21525;-65
2022/07/11 10:46:40;;;;;;;2.02;0.98;;;;;;;24.02;42.70;98842.40;1699551;84;20900;-65
2022/07/11 10:49:18;;;;;;;2.10;0.88;;;;;;;23.93;42.57;98846.22;1691079;84;21266;-64
2022/07/11 10:52:06;;;;;;;0.60;0.60;;;;;;;23.89;42.80;98845.94;1693261;84;20958;-64
2022/07/11 10:54:55;;;;;;;1.00;0.80;;;;;;;23.87;42.73;98841.33;1693342;84;21014;-64
2022/07/11 10:57:29;;;;;;;2.27;0.78;;;;;;;23.82;42.71;98840.52;1686938;84;21429;-65
2022/07/11 11:00:10;;;;;;;1.62;0.70;;;;;;;23.66;42.75;98838.86;1694301;84;20951;-65
2022/07/11 11:03:04;;;;;;;0.88;0.80;;;;;;;23.56;42.50;98838.31;1694959;84;21147;-65
2022/07/11 11:05:49;;;;;;;0.80;0.60;;;;;;;23.45;42.15;98835.30;1693696;84;20979;-65
2022/07/11 11:08:35;;;;;;;1.77;0.62;;;;;;;23.45;42.20;98832.59;1697233;84;20944;-66
2022/07/11 11:11:08;;;;;;;4.12;0.70;;;;;;;23.51;41.60;98825.28;1669000;84;20884;-66
2022/07/11 11:13:36;;;;;;;0.57;0.57;;;;;;;23.57;41.19;98825.56;1686401;84;20951;-69
2022/07/11 11:16:20;;;;;;;1.98;0.95;;;;;;;23.66;40.89;98822.58;1685501;84;21181;-64
2022/07/11 11:18:47;;;;;;;2.87;0.78;;;;;;;23.78;40.86;98817.14;1669929;84;21025;-67
2022/07/11 11:21:16;;;;;;;1.85;0.72;;;;;;;23.95;40.41;98825.85;1699568;84;20948;-66
2022/07/11 11:23:59;;;;;;;2.58;0.85;;;;;;;24.04;39.87;98826.66;1688154;84;20989;-68
2022/07/11 11:26:23;;;;;;;2.10;0.60;;;;;;;24.12;39.81;98825.58;1687591;84;20865;-65
2022/07/11 11:29:01;;;;;;;0.50;0.50;;;;;;;24.21;38.90;98817.16;1695492;84;21221;-68
2022/07/11 11:31:29;;;;;;;2.50;0.50;;;;;;;24.20;38.69;98820.13;1696233;84;21502;-65
2022/07/11 11:34:01;;;;;;;3.17;0.80;;;;;;;24.17;38.70;98819.34;1696263;84;20996;-69
2022/07/11 11:36:27;;;;;;;1.15;0.80;;;;;;;24.11;39.10;98818.53;1697386;84;21102;-66
2022/07/11 11:38:55;;;;;;;2.20;0.65;;;;;;;24.12;39.48;98823.41;1697991;84;21067;-65
2022/07/11 11:41:27;;;;;;;1.12;0.72;;;;;;;24.30;40.02;98822.86;1698453;84;21296;-68
2022/07/11 11:43:55;;;;;;;0.50;0.50;;;;;;;24.52;39.83;98826.06;1699161;84;20885;-68
2022/07/11 11:46:31;;;;;;;0.78;0.57;;;;;;;24.64;38.92;98824.41;1699191;84;20995;-66
2022/07/11 11:48:58;;;;;;;1.07;0.50;;;;;;;24.58;38.58;98824.96;1695999;83;20999;-64